EGCC/MAN METAR and TAF weather

Enter ICAO airport designator
Station Type Date Time Source
EGCC METAR 2024/06/14 03:20 UTC NOAA

EGCC 140320Z AUTO 19005KT 160V230 9999 BKN016 12/10 Q0998


Station Type Date Time Source
EGCC Decoded METAR 2024/06/14 03:20 UTC NOAA

Manchester Airport, United Kingdom (EGCC) 53-21N 002-17W 0M
Jun 13, 2024 - 11:20 PM EDT / 2024.06.14 0320 UTC
Wind: from the S (190 degrees) at 6 MPH (5 KT) (direction variable):0
Visibility: greater than 7 mile(s):0
Sky conditions: mostly cloudy
Temperature: 53 F (12 C)
Dew Point: 50 F (10 C)
Relative Humidity: 87%
Pressure (altimeter): 29.47 in. Hg (0998 hPa)
ob: EGCC 140320Z AUTO 19005KT 160V230 9999 BKN016 12/10 Q0998
cycle: 3

Station Type Date Time Source
EGCC TAF 2024/06/13 18:09 UTC NOAA